This is the latest recevied weather packets stored in our database for station/object WX7EM. If no packets are shown the sender has not sent any weather packets the latest 10 day(s).
| Time | Temp. | Humidity | Pressure | Rain* | Wind** | Luminosity | Snow |
|---|---|---|---|---|---|---|---|
| 1777851128 | 29.44° C | 46% | 1006.7 hPa | 0 mm | - | 131 W/m² | - |
| 1777850825 | 29.44° C | 48% | 1006.7 hPa | 0 mm | - | 131 W/m² | - |
| 1777850523 | 28.89° C | 49% | 1006.8 hPa | 0 mm | - | 109 W/m² | - |
| 1777850221 | 28.89° C | 48% | 1006.7 hPa | 0 mm | - | 93 W/m² | - |
| 1777849917 | 28.89° C | 51% | 1006.9 hPa | 0 mm | - | 118 W/m² | - |
| 1777849614 | 28.89° C | 50% | 1007.1 hPa | 0 mm | - | 100 W/m² | - |
| 1777849311 | 28.89° C | 50% | 1007.1 hPa | 0 mm | - | 81 W/m² | - |
| 1777849008 | 28.33° C | 54% | 1007.2 hPa | 0 mm | - | 96 W/m² | - |
| 1777848708 | 28.89° C | 52% | 1007.2 hPa | 0 mm | - | 77 W/m² | - |
| 1777848406 | 28.33° C | 53% | 1007.3 hPa | 0 mm | - | 75 W/m² | - |
| 1777848103 | 27.78° C | 55% | 1007.5 hPa | 0 mm | - | 93 W/m² | - |
| 1777847801 | 28.33° C | 55% | 1007.6 hPa | 0 mm | - | 79 W/m² | - |
| 1777847497 | 28.33° C | 54% | 1007.7 hPa | 0 mm | - | 141 W/m² | - |
| 1777847195 | 27.78° C | 55% | 1007.8 hPa | 0 mm | - | 301 W/m² | - |
| 1777846892 | 27.78° C | 56% | 1007.8 hPa | 0 mm | - | 91 W/m² | - |
| 1777846591 | 27.22° C | 58% | 1008 hPa | 0 mm | - | 80 W/m² | - |
| 1777846288 | 27.22° C | 58% | 1007.9 hPa | 0 mm | - | 122 W/m² | - |
| 1777845985 | 27.22° C | 57% | 1007.9 hPa | 0 mm | - | 80 W/m² | - |
| 1777845681 | 27.22° C | 59% | 1007.9 hPa | 0 mm | - | 80 W/m² | - |
| 1777845378 | 27.22° C | 58% | 1008.3 hPa | 0 mm | - | 77 W/m² | - |
| 1777845074 | 26.67° C | 59% | 1008.3 hPa | 0 mm | - | 80 W/m² | - |
| 1777844774 | 26.67° C | 61% | 1008.3 hPa | 0 mm | - | 140 W/m² | - |
| 1777844469 | 26.11° C | 62% | 1008.2 hPa | 0 mm | - | 97 W/m² | - |
| 1777844169 | 26.67° C | 61% | 1008.4 hPa | 0 mm | - | 255 W/m² | - |
| 1777843864 | 26.67° C | 62% | 1008.6 hPa | 0 mm | - | 178 W/m² | - |
* Rain latest hour (hover to see other rain measurements)
** Current wind speed in m/s (hover to see current wind gust speed)